createdAt,value
2017-02-23T00:00:37.456Z,99.74
2017-02-23T00:01:50.278Z,99.07
2017-02-23T00:03:02.863Z,99.99
2017-02-23T00:04:15.458Z,99.65
2017-02-23T00:05:28.611Z,98.88
2017-02-23T00:06:41.763Z,99.36
2017-02-23T00:07:54.356Z,99.45
2017-02-23T00:09:07.528Z,99.99
2017-02-23T00:10:20.107Z,99.99
2017-02-23T00:11:33.240Z,99.94
2017-02-23T00:12:45.841Z,99.74
2017-02-23T00:13:58.974Z,98.68
2017-02-23T00:15:12.108Z,99.36
2017-02-23T00:16:25.237Z,99.07
2017-02-23T00:17:38.369Z,99.74
2017-02-23T00:18:51.523Z,99.99
2017-02-23T00:20:04.688Z,99.99
2017-02-23T00:21:17.274Z,99.99
2017-02-23T00:22:30.431Z,99.99
2017-02-23T00:23:43.815Z,99.45
2017-02-23T00:24:56.975Z,99.74
2017-02-23T00:26:10.137Z,99.99
2017-02-23T00:27:22.728Z,99.99
2017-02-23T00:28:35.892Z,99.99
2017-02-23T00:29:48.163Z,99.99
2017-02-23T00:31:01.298Z,99.99
2017-02-23T00:32:27.877Z,99.99
2017-02-23T00:33:41.008Z,99.99
2017-02-23T00:34:54.148Z,99.99
2017-02-23T00:36:06.748Z,99.99
2017-02-23T00:37:32.775Z,99.99
2017-02-23T00:38:45.920Z,99.99
2017-02-23T00:39:59.082Z,99.99
2017-02-23T00:41:12.222Z,99.99
2017-02-23T00:42:25.373Z,99.99
2017-02-23T00:43:38.515Z,99.99
2017-02-23T00:44:51.656Z,99.99
2017-02-23T00:46:04.794Z,99.99
2017-02-23T00:47:17.383Z,99.99
2017-02-23T00:48:30.544Z,99.99
2017-02-23T00:49:43.940Z,99.99
2017-02-23T00:50:57.090Z,99.99
2017-02-23T00:52:10.255Z,99.99
2017-02-23T00:53:23.420Z,99.99
2017-02-23T00:54:36.552Z,99.99
2017-02-23T00:55:49.160Z,99.99
2017-02-23T00:57:02.327Z,99.99
2017-02-23T00:58:15.516Z,99.11
2017-02-23T00:59:28.665Z,99.99
2017-02-23T01:00:41.828Z,99.99
2017-02-23T01:01:55.017Z,99.99
2017-02-23T01:03:08.212Z,99.99
2017-02-23T01:04:34.243Z,99.36
2017-02-23T01:06:01.435Z,99.45
2017-02-23T01:07:14.572Z,99.99
2017-02-23T01:08:27.723Z,99.94
2017-02-23T01:09:40.945Z,98.97
2017-02-23T01:10:54.292Z,97.62
2017-02-23T01:12:07.769Z,97.96
2017-02-23T01:13:34.912Z,97.86
2017-02-23T01:14:48.067Z,98.05
2017-02-23T01:16:15.546Z,98.73
2017-02-23T01:17:28.708Z,98.83
2017-02-23T01:18:41.852Z,98.73
2017-02-23T01:19:55.027Z,99.16
2017-02-23T01:21:08.232Z,99.07
2017-02-23T01:22:20.964Z,99.74
2017-02-23T01:23:34.289Z,99.99
2017-02-23T01:24:47.485Z,99.55
2017-02-23T01:26:00.685Z,99.55
2017-02-23T01:27:13.279Z,99.74
2017-02-23T01:28:26.491Z,99.99
2017-02-23T01:29:39.781Z,99.99
2017-02-23T01:30:53.061Z,99.99
2017-02-23T01:32:05.790Z,99.99
2017-02-23T01:33:18.765Z,99.99
2017-02-23T01:34:32.056Z,99.99
2017-02-23T01:35:45.338Z,99.99
2017-02-23T01:36:58.640Z,99.99
2017-02-23T01:38:11.616Z,99.99
2017-02-23T01:39:24.915Z,99.99
2017-02-23T01:40:38.183Z,99.99
2017-02-23T01:41:51.463Z,99.99
2017-02-23T01:43:04.749Z,99.99
2017-02-23T01:44:16.632Z,99.99
2017-02-23T01:45:29.928Z,99.99
2017-02-23T01:46:43.202Z,99.99
2017-02-23T01:47:56.485Z,99.99
2017-02-23T01:49:10.032Z,99.99
2017-02-23T01:50:23.307Z,99.99
2017-02-23T01:51:36.602Z,99.99
2017-02-23T01:52:49.911Z,99.99
2017-02-23T01:54:03.194Z,99.99
2017-02-23T01:55:16.471Z,99.99
2017-02-23T01:56:29.784Z,99.99
2017-02-23T01:57:43.055Z,99.99
2017-02-23T01:58:56.372Z,99.99
2017-02-23T02:00:09.900Z,99.99
2017-02-23T02:01:23.188Z,99.99
2017-02-23T02:02:36.451Z,99.99
2017-02-23T02:03:49.740Z,99.99
2017-02-23T02:05:03.074Z,99.99
2017-02-23T02:06:16.361Z,99.99
2017-02-23T02:07:29.626Z,99.99
2017-02-23T02:08:42.922Z,99.99
2017-02-23T02:09:55.065Z,99.99
2017-02-23T02:11:08.385Z,99.99
2017-02-23T02:12:21.101Z,99.99
2017-02-23T02:13:34.345Z,99.99
2017-02-23T02:14:47.484Z,99.99
2017-02-23T02:16:00.621Z,99.99
2017-02-23T02:17:14.064Z,99.99
2017-02-23T02:18:27.213Z,99.99
2017-02-23T02:19:40.361Z,99.99
2017-02-23T02:20:52.949Z,99.99
2017-02-23T02:22:06.095Z,99.99
2017-02-23T02:23:18.688Z,99.99
2017-02-23T02:24:31.816Z,99.99
2017-02-23T02:25:44.425Z,99.99
2017-02-23T02:26:57.560Z,99.99
2017-02-23T02:28:09.881Z,99.99
2017-02-23T02:29:21.905Z,99.99
2017-02-23T02:30:35.066Z,99.99
2017-02-23T02:31:48.196Z,99.99
2017-02-23T02:33:01.589Z,99.99
2017-02-23T02:34:14.729Z,99.99
2017-02-23T02:35:27.888Z,99.99
2017-02-23T02:36:41.057Z,99.99
2017-02-23T02:37:54.208Z,99.99
2017-02-23T02:39:07.351Z,99.99
2017-02-23T02:40:20.499Z,99.99
2017-02-23T02:41:33.664Z,99.99
2017-02-23T02:43:00.812Z,99.99
2017-02-23T02:44:13.968Z,99.99
2017-02-23T02:45:26.565Z,99.99
2017-02-23T02:46:39.718Z,99.99
2017-02-23T02:47:52.857Z,99.99
2017-02-23T02:49:06.325Z,99.99
2017-02-23T02:50:19.475Z,99.99
2017-02-23T02:51:32.635Z,99.99
2017-02-23T02:52:45.776Z,99.99
2017-02-23T02:53:59.162Z,99.99
2017-02-23T02:55:12.321Z,99.99
2017-02-23T02:56:25.462Z,99.99
2017-02-23T02:57:38.608Z,99.99
2017-02-23T02:58:51.750Z,99.99
2017-02-23T03:00:04.885Z,99.99
2017-02-23T03:01:31.502Z,99.99
2017-02-23T03:02:44.640Z,99.99
2017-02-23T03:03:57.768Z,99.99
2017-02-23T03:05:10.902Z,99.99
2017-02-23T03:07:50.619Z,99.99
2017-02-23T03:09:04.058Z,99.99
2017-02-23T03:10:16.082Z,99.99
2017-02-23T03:11:29.231Z,99.99
2017-02-23T03:12:42.359Z,99.99
2017-02-23T03:13:54.963Z,99.99
2017-02-23T03:15:08.357Z,99.99
2017-02-23T03:16:21.516Z,99.99
2017-02-23T03:17:34.665Z,99.99
2017-02-23T03:18:47.808Z,99.99
2017-02-23T03:20:00.934Z,99.99
2017-02-23T03:21:14.090Z,99.99
2017-02-23T03:22:27.219Z,99.99
2017-02-23T03:23:40.370Z,99.99
2017-02-23T03:24:53.521Z,99.99
2017-02-23T03:26:06.660Z,99.99
2017-02-23T03:27:19.807Z,99.99
2017-02-23T03:28:32.386Z,99.99
2017-02-23T03:29:45.521Z,99.99
2017-02-23T03:30:58.678Z,99.99
2017-02-23T03:32:12.116Z,99.99
2017-02-23T03:33:24.704Z,99.99
2017-02-23T03:34:37.841Z,99.99
2017-02-23T03:35:50.975Z,99.99
2017-02-23T03:37:04.118Z,99.99
2017-02-23T03:38:16.706Z,99.99
2017-02-23T03:39:29.845Z,99.99
2017-02-23T03:40:42.986Z,99.99
2017-02-23T03:41:56.133Z,99.99
2017-02-23T03:43:09.647Z,99.99
2017-02-23T03:44:22.371Z,99.99
2017-02-23T03:45:35.640Z,99.99
2017-02-23T03:46:48.927Z,99.99
2017-02-23T03:48:02.201Z,99.99
2017-02-23T03:49:15.483Z,99.99
2017-02-23T03:50:28.760Z,99.99
2017-02-23T03:51:42.043Z,99.99
2017-02-23T03:52:54.764Z,99.99
2017-02-23T03:54:08.080Z,99.84
2017-02-23T03:55:21.395Z,99.99
2017-02-23T03:56:34.098Z,99.99
2017-02-23T03:58:01.371Z,99.99
2017-02-23T03:59:14.079Z,99.99
2017-02-23T04:00:27.358Z,99.99
2017-02-23T04:01:40.637Z,99.99
2017-02-23T04:03:07.342Z,99.99
2017-02-23T04:04:20.052Z,99.99
2017-02-23T04:05:33.374Z,99.99
2017-02-23T04:06:46.667Z,99.99
2017-02-23T04:07:59.947Z,99.99
2017-02-23T04:09:27.473Z,99.99
2017-02-23T04:10:40.749Z,99.99
2017-02-23T04:11:54.021Z,99.99
2017-02-23T04:13:07.293Z,99.99
2017-02-23T04:14:20.567Z,99.99
2017-02-23T04:15:33.849Z,99.99
2017-02-23T04:16:47.117Z,99.99
2017-02-23T04:17:59.852Z,99.99
2017-02-23T04:19:13.163Z,99.99
2017-02-23T04:20:26.168Z,99.99
2017-02-23T04:21:39.436Z,99.99
2017-02-23T04:22:52.755Z,99.99
2017-02-23T04:24:20.014Z,99.99
2017-02-23T04:25:47.532Z,99.99
2017-02-23T04:27:00.807Z,99.99
2017-02-23T04:28:13.510Z,99.99
2017-02-23T04:29:26.211Z,99.99
2017-02-23T04:30:39.483Z,99.99
2017-02-23T04:31:52.192Z,99.99
2017-02-23T04:33:04.889Z,99.99
2017-02-23T04:34:17.616Z,99.99
2017-02-23T04:35:31.160Z,99.99
2017-02-23T04:36:44.437Z,99.99
2017-02-23T04:37:57.714Z,99.99
2017-02-23T04:39:10.456Z,99.99
2017-02-23T04:40:23.156Z,99.99
2017-02-23T04:41:36.434Z,99.99
2017-02-23T04:42:49.704Z,99.99
2017-02-23T04:44:02.988Z,99.99
2017-02-23T04:45:15.134Z,99.99
2017-02-23T04:46:27.840Z,99.99
2017-02-23T04:47:41.107Z,99.99
2017-02-23T04:48:53.807Z,99.99
2017-02-23T04:50:07.085Z,99.99
2017-02-23T04:51:20.666Z,99.99
2017-02-23T04:52:33.948Z,99.99
2017-02-23T04:53:47.240Z,99.99
2017-02-23T04:54:59.940Z,99.99
2017-02-23T04:56:12.090Z,99.99
2017-02-23T04:57:25.356Z,99.99
2017-02-23T04:58:38.646Z,99.99
2017-02-23T04:59:51.932Z,99.99
2017-02-23T05:01:05.203Z,99.99
2017-02-23T05:02:17.905Z,99.99
2017-02-23T05:03:30.630Z,99.99
2017-02-23T05:04:43.921Z,99.99
2017-02-23T05:05:57.207Z,99.99
2017-02-23T05:07:09.921Z,99.99
2017-02-23T05:08:36.913Z,99.99
2017-02-23T05:09:50.178Z,99.99
2017-02-23T05:11:16.863Z,99.99
2017-02-23T05:12:30.149Z,99.99
2017-02-23T05:13:43.435Z,99.99
2017-02-23T05:14:56.153Z,99.99
2017-02-23T05:16:09.422Z,99.99
2017-02-23T05:17:22.694Z,99.99
2017-02-23T05:18:50.752Z,99.99
2017-02-23T05:20:04.021Z,99.99
2017-02-23T05:21:16.724Z,99.99
2017-02-23T05:22:30.004Z,99.99
2017-02-23T05:23:43.518Z,99.99
2017-02-23T05:24:56.803Z,99.99
2017-02-23T05:26:10.093Z,99.99
2017-02-23T05:27:23.392Z,99.99
2017-02-23T05:28:36.932Z,99.99
2017-02-23T05:29:50.209Z,99.99
2017-02-23T05:31:02.931Z,99.99
2017-02-23T05:32:16.211Z,99.99
2017-02-23T05:33:28.928Z,99.99
2017-02-23T05:34:42.467Z,99.99
2017-02-23T05:35:55.749Z,99.99
2017-02-23T05:37:09.031Z,99.99
2017-02-23T05:38:21.737Z,99.99
2017-02-23T05:39:35.318Z,99.99
2017-02-23T05:40:48.589Z,99.99
2017-02-23T05:42:01.853Z,99.99
2017-02-23T05:43:15.155Z,99.99
2017-02-23T05:44:27.884Z,99.99
2017-02-23T05:45:41.451Z,99.99
2017-02-23T05:47:08.700Z,99.99
2017-02-23T05:48:21.982Z,99.99
2017-02-23T05:49:35.554Z,99.99
2017-02-23T05:50:48.876Z,99.99
2017-02-23T05:52:02.152Z,99.99
2017-02-23T05:53:14.874Z,99.99
2017-02-23T05:54:28.150Z,99.99
2017-02-23T05:55:41.442Z,99.99
2017-02-23T05:57:08.698Z,99.99
2017-02-23T05:58:21.954Z,99.99
2017-02-23T05:59:34.526Z,99.99
2017-02-23T06:00:47.102Z,99.99
2017-02-23T06:01:59.689Z,99.99
2017-02-23T06:03:12.829Z,99.99
2017-02-23T06:04:25.987Z,99.99
2017-02-23T06:05:39.118Z,99.99
2017-02-23T06:06:52.255Z,99.99
2017-02-23T06:08:05.397Z,99.99
2017-02-23T06:09:17.970Z,99.99
2017-02-23T06:10:31.121Z,99.99
2017-02-23T06:11:44.265Z,99.99
2017-02-23T06:12:57.415Z,99.99
2017-02-23T06:14:10.556Z,99.99
2017-02-23T06:15:23.133Z,99.99
2017-02-23T06:16:36.542Z,99.99
2017-02-23T06:18:03.694Z,99.99
2017-02-23T06:19:16.831Z,99.99
2017-02-23T06:20:29.960Z,99.99
2017-02-23T06:21:42.541Z,99.99
2017-02-23T06:22:55.712Z,99.99
2017-02-23T06:24:08.847Z,99.99
2017-02-23T06:25:21.430Z,99.99
2017-02-23T06:26:34.592Z,99.99
2017-02-23T06:27:47.180Z,99.99
2017-02-23T06:28:59.752Z,99.99
2017-02-23T06:30:26.900Z,99.99
2017-02-23T06:31:40.048Z,99.99
2017-02-23T06:32:53.202Z,99.99
2017-02-23T06:34:06.339Z,99.99
2017-02-23T06:35:19.476Z,99.99
2017-02-23T06:36:32.619Z,99.99
2017-02-23T06:37:45.748Z,99.99
2017-02-23T06:38:58.520Z,99.99
2017-02-23T06:40:11.105Z,99.99
2017-02-23T06:41:24.240Z,99.99
2017-02-23T06:42:37.435Z,99.99
2017-02-23T06:43:51.001Z,99.99
2017-02-23T06:45:04.292Z,99.99
2017-02-23T06:46:17.569Z,99.99
2017-02-23T06:47:30.848Z,99.99
2017-02-23T06:48:44.137Z,99.99
2017-02-23T06:49:57.442Z,99.99
2017-02-23T06:51:10.711Z,99.99
2017-02-23T06:52:23.992Z,99.99
2017-02-23T06:53:37.271Z,99.99
2017-02-23T06:54:50.230Z,99.99
2017-02-23T06:56:03.502Z,99.99
2017-02-23T06:57:16.776Z,99.99
2017-02-23T06:58:29.488Z,99.99
2017-02-23T06:59:42.224Z,99.99
2017-02-23T07:00:55.521Z,99.99
2017-02-23T07:02:08.809Z,99.99
2017-02-23T07:03:21.505Z,99.99
2017-02-23T07:04:34.219Z,99.99
2017-02-23T07:05:47.502Z,99.99
2017-02-23T07:07:00.799Z,99.99
2017-02-23T07:08:14.084Z,99.99
2017-02-23T07:09:27.366Z,99.99
2017-02-23T07:10:41.279Z,99.99
2017-02-23T07:11:54.570Z,99.99
2017-02-23T07:13:07.839Z,99.99
2017-02-23T07:14:21.127Z,99.99
2017-02-23T07:15:33.835Z,99.99
2017-02-23T07:16:47.397Z,99.99
2017-02-23T07:18:00.680Z,99.99
2017-02-23T07:19:13.402Z,99.99
2017-02-23T07:20:26.111Z,99.99
2017-02-23T07:21:39.703Z,99.99
2017-02-23T07:22:52.974Z,99.99
2017-02-23T07:24:06.265Z,99.99
2017-02-23T07:25:18.965Z,99.99
2017-02-23T07:26:32.261Z,99.99
2017-02-23T07:27:45.484Z,99.99
2017-02-23T07:28:58.622Z,99.99
2017-02-23T07:30:11.753Z,99.99
2017-02-23T07:31:24.912Z,99.99
2017-02-23T07:32:38.061Z,99.99
2017-02-23T07:33:50.632Z,99.99
2017-02-23T07:36:16.355Z,99.99
2017-02-23T07:37:28.950Z,99.99
2017-02-23T07:38:42.086Z,99.99
2017-02-23T07:39:54.661Z,99.99
2017-02-23T07:41:07.830Z,99.99
2017-02-23T07:42:20.418Z,99.99
2017-02-23T07:43:33.563Z,99.99
2017-02-23T07:44:46.159Z,99.99
2017-02-23T07:45:58.177Z,99.99
2017-02-23T07:47:10.208Z,99.99
2017-02-23T07:48:23.339Z,99.99
2017-02-23T07:49:36.729Z,99.99
2017-02-23T07:50:49.857Z,99.99
2017-02-23T07:52:03.005Z,99.99
2017-02-23T07:53:16.141Z,99.99
2017-02-23T07:54:29.576Z,99.99
2017-02-23T07:55:42.714Z,99.99
2017-02-23T07:57:09.861Z,99.99
2017-02-23T07:58:22.439Z,99.99
2017-02-23T07:59:35.585Z,99.99
2017-02-23T08:00:48.729Z,99.99
2017-02-23T08:02:01.873Z,99.99
2017-02-23T08:03:29.006Z,99.99
2017-02-23T08:04:42.442Z,99.99
2017-02-23T08:05:55.569Z,99.99
2017-02-23T08:07:08.715Z,99.99
2017-02-23T08:08:21.860Z,99.99
2017-02-23T08:09:35.002Z,99.99
2017-02-23T08:11:01.903Z,99.99
2017-02-23T08:12:14.475Z,99.99
2017-02-23T08:13:27.622Z,99.99
2017-02-23T08:14:40.768Z,99.99
2017-02-23T08:15:54.199Z,99.99
2017-02-23T08:17:07.356Z,99.99
2017-02-23T08:19:47.889Z,99.99
2017-02-23T08:21:01.042Z,99.99
2017-02-23T08:22:14.212Z,99.99
2017-02-23T08:23:27.361Z,99.99
2017-02-23T08:24:39.960Z,99.99
2017-02-23T08:25:53.354Z,99.99
2017-02-23T08:27:06.488Z,99.99
2017-02-23T08:28:19.068Z,99.99
2017-02-23T08:29:32.210Z,99.99
2017-02-23T08:30:58.809Z,99.99
2017-02-23T08:32:11.950Z,99.99
2017-02-23T08:33:25.118Z,99.99
2017-02-23T08:34:38.268Z,99.99
2017-02-23T08:35:51.121Z,99.99
2017-02-23T08:37:04.259Z,99.99
2017-02-23T08:38:31.403Z,99.99
2017-02-23T08:39:43.997Z,99.99
2017-02-23T08:40:57.130Z,99.99
2017-02-23T08:42:09.745Z,99.99
2017-02-23T08:43:22.874Z,99.99
2017-02-23T08:44:34.903Z,99.99
2017-02-23T08:45:48.053Z,99.99
2017-02-23T08:47:01.453Z,99.99
2017-02-23T08:48:13.492Z,99.99
2017-02-23T08:49:26.634Z,99.99
2017-02-23T08:50:39.246Z,99.99
2017-02-23T08:51:52.643Z,99.99
2017-02-23T08:53:19.787Z,99.99
2017-02-23T08:54:32.960Z,99.99
2017-02-23T08:55:46.088Z,99.99
2017-02-23T08:56:59.473Z,99.99
2017-02-23T08:58:12.079Z,99.99
2017-02-23T08:59:24.230Z,99.99
2017-02-23T09:00:37.514Z,99.99
2017-02-23T09:01:50.782Z,99.99
2017-02-23T09:03:04.383Z,99.99
2017-02-23T09:04:17.123Z,99.99
2017-02-23T09:05:30.414Z,99.99
2017-02-23T09:06:43.691Z,99.99
2017-02-23T09:07:56.973Z,99.99
2017-02-23T09:09:10.271Z,99.99
2017-02-23T09:10:22.991Z,99.99
2017-02-23T09:11:36.304Z,99.99
2017-02-23T09:12:49.583Z,99.99
2017-02-23T09:14:16.838Z,99.99
2017-02-23T09:15:44.105Z,99.99
2017-02-23T09:16:57.391Z,99.99
2017-02-23T09:19:37.367Z,99.88
2017-02-23T09:20:50.652Z,99.98
2017-02-23T09:22:03.948Z,99.99
2017-02-23T09:23:17.235Z,99.5
2017-02-23T09:24:30.510Z,99.6
2017-02-23T09:25:43.231Z,99.69
2017-02-23T09:26:56.502Z,99.11
2017-02-23T09:28:09.773Z,99.31
2017-02-23T09:29:23.299Z,99.69
2017-02-23T09:30:36.566Z,99.6
2017-02-23T09:31:49.274Z,99.6
2017-02-23T09:33:02.545Z,99.69
2017-02-23T09:34:29.804Z,99.31
2017-02-23T09:35:43.107Z,99.69
2017-02-23T09:36:56.393Z,99.99
2017-02-23T09:38:09.676Z,99.99
2017-02-23T09:39:23.224Z,99.99
2017-02-23T09:40:36.523Z,99.99
2017-02-23T09:41:49.798Z,99.99
2017-02-23T09:43:03.023Z,99.93
2017-02-23T09:44:16.166Z,99.99
2017-02-23T09:45:29.308Z,99.99
2017-02-23T09:46:42.449Z,99.99
2017-02-23T09:47:55.606Z,99.99
2017-02-23T09:49:08.757Z,99.5
2017-02-23T09:50:21.907Z,98.92
2017-02-23T09:51:35.050Z,99.69
2017-02-23T09:52:48.210Z,99.31
2017-02-23T09:54:01.371Z,98.54
2017-02-23T09:55:13.946Z,98.83
2017-02-23T09:56:27.343Z,98.25
2017-02-23T09:57:40.487Z,98.15
2017-02-23T09:58:53.640Z,97.47
2017-02-23T10:00:06.763Z,97.77
2017-02-23T10:01:34.150Z,97.19
2017-02-23T10:02:46.731Z,98.05
2017-02-23T10:03:59.911Z,97.38
2017-02-23T10:05:11.955Z,96.8
2017-02-23T10:06:25.419Z,96.99
2017-02-23T10:07:38.553Z,96.99
2017-02-23T10:08:51.716Z,96.22
2017-02-23T10:10:04.861Z,96.17
2017-02-23T10:11:17.434Z,95.59
2017-02-23T10:12:30.576Z,95.11
2017-02-23T10:13:43.714Z,94.24
2017-02-23T10:14:56.877Z,94.34
2017-02-23T10:16:10.015Z,94.72
2017-02-23T10:17:23.467Z,93.47
2017-02-23T10:18:36.612Z,93.27
2017-02-23T10:19:49.212Z,92.41
2017-02-23T10:21:02.358Z,91.83
2017-02-23T10:22:29.742Z,92.5
2017-02-23T10:23:56.886Z,91.39
2017-02-23T10:25:09.463Z,92.16
2017-02-23T10:26:22.062Z,91.97
2017-02-23T10:27:34.089Z,91.39
2017-02-23T10:28:47.242Z,90.13
2017-02-23T10:30:00.389Z,90.23
2017-02-23T10:31:13.027Z,90.71
2017-02-23T10:32:25.611Z,90.71
2017-02-23T10:33:38.457Z,90.71
2017-02-23T10:34:51.605Z,90.13
2017-02-23T10:36:18.753Z,90.52
2017-02-23T10:37:31.882Z,89.17
2017-02-23T10:38:45.038Z,88.59
2017-02-23T10:40:11.647Z,89.07
2017-02-23T10:41:23.673Z,89.01
2017-02-23T10:42:36.817Z,87.66
2017-02-23T10:43:49.967Z,87.08
2017-02-23T10:45:16.564Z,87.18
2017-02-23T10:46:29.713Z,86.6
2017-02-23T10:47:57.116Z,85.63
2017-02-23T10:49:09.700Z,84.67
2017-02-23T10:50:22.291Z,85.15
2017-02-23T10:53:02.582Z,84.95
2017-02-23T10:54:15.186Z,85
2017-02-23T10:55:28.337Z,85.1
2017-02-23T10:56:41.484Z,84.52
2017-02-23T10:57:54.774Z,84.32
2017-02-23T10:59:22.017Z,82.97
2017-02-23T11:00:34.721Z,81.52
2017-02-23T11:01:48.149Z,82.97
2017-02-23T11:03:00.930Z,82.29
2017-02-23T11:04:14.211Z,81.95
2017-02-23T11:05:27.527Z,82.33
2017-02-23T11:06:54.293Z,82.43
2017-02-23T11:08:07.854Z,82.2
2017-02-23T11:09:21.120Z,81.17
2017-02-23T11:10:34.267Z,81.65
2017-02-23T11:11:46.861Z,80.49
2017-02-23T11:13:00.046Z,80.01
2017-02-23T11:14:13.584Z,80.01
2017-02-23T11:15:26.867Z,80.69
2017-02-23T11:16:39.573Z,80.59
2017-02-23T11:17:52.976Z,80.4
2017-02-23T11:20:46.664Z,80.15
2017-02-23T11:22:00.126Z,79.66
2017-02-23T11:23:26.357Z,79.27
2017-02-23T11:24:39.825Z,78.5
2017-02-23T11:25:53.297Z,78.69
2017-02-23T11:27:06.188Z,78.89
2017-02-23T11:28:19.068Z,78.79
2017-02-23T11:29:32.537Z,78.41
2017-02-23T11:30:46.001Z,78.79
2017-02-23T11:31:59.464Z,79.22
2017-02-23T11:33:12.332Z,78.74
2017-02-23T11:34:25.207Z,78.92
2017-02-23T11:35:38.807Z,78.64
2017-02-23T11:36:52.292Z,78.44
2017-02-23T11:38:05.756Z,78.54
2017-02-23T11:39:19.237Z,78.44
2017-02-23T11:40:32.116Z,78.05
2017-02-23T11:41:45.831Z,76.21
2017-02-23T11:43:13.234Z,76.21
2017-02-23T11:44:25.548Z,76.7
2017-02-23T11:45:39.024Z,74.99
2017-02-23T11:46:52.746Z,74.6
2017-02-23T11:48:06.200Z,75.28
2017-02-23T11:49:19.658Z,74.7
2017-02-23T11:50:33.110Z,74.7
2017-02-23T11:51:46.770Z,75.09
2017-02-23T11:53:13.448Z,74.12
2017-02-23T11:54:26.713Z,73.64
2017-02-23T11:55:39.459Z,73.25
2017-02-23T11:56:51.855Z,72.31
2017-02-23T11:58:05.156Z,72.99
2017-02-23T11:59:18.323Z,71.44
2017-02-23T12:00:30.914Z,71.06
2017-02-23T12:01:44.057Z,70.47
2017-02-23T12:02:56.652Z,70.09
2017-02-23T12:04:09.796Z,69.89
2017-02-23T12:05:22.963Z,70.61
2017-02-23T12:06:36.114Z,70.03
2017-02-23T12:07:49.567Z,68.28
2017-02-23T12:09:02.709Z,68.18
2017-02-23T12:10:29.865Z,68.08
2017-02-23T12:11:43.032Z,69.15
2017-02-23T12:12:55.878Z,69.54
2017-02-23T12:14:23.031Z,68.28
2017-02-23T12:15:36.180Z,68.18
2017-02-23T12:16:48.204Z,67.79
2017-02-23T12:18:01.337Z,68.28
2017-02-23T12:19:13.926Z,67.5
2017-02-23T12:20:41.072Z,67.31
2017-02-23T12:21:54.234Z,68.28
2017-02-23T12:23:06.820Z,68.31
2017-02-23T12:24:19.974Z,68.21
2017-02-23T12:25:33.114Z,67.34
2017-02-23T12:27:00.262Z,67.92
2017-02-23T12:28:13.409Z,67.34
2017-02-23T12:31:07.721Z,66.89
2017-02-23T12:32:20.886Z,66.11
2017-02-23T12:33:34.308Z,65.92
2017-02-23T12:35:00.897Z,64.49
2017-02-23T12:36:14.061Z,63.84
2017-02-23T12:37:27.200Z,64.43
2017-02-23T12:38:54.646Z,63.39
2017-02-23T12:40:07.825Z,63.59
2017-02-23T12:41:20.967Z,62.9
2017-02-23T12:42:34.128Z,63.13
2017-02-23T12:43:46.836Z,62.84
2017-02-23T12:44:59.848Z,61.57
2017-02-23T12:46:26.568Z,60.7
2017-02-23T12:47:39.846Z,60.82
2017-02-23T12:49:21.078Z,60.41
2017-02-23T12:50:34.355Z,60.44
2017-02-23T12:51:47.079Z,60.14
2017-02-23T12:53:00.363Z,59.36
2017-02-23T12:54:13.668Z,59.27
2017-02-23T12:55:26.965Z,58.91
2017-02-23T12:56:40.294Z,59
2017-02-23T12:57:52.453Z,58.54
2017-02-23T12:59:05.161Z,57.76
2017-02-23T13:00:31.880Z,57.21
2017-02-23T13:01:44.606Z,57.7
2017-02-23T13:02:57.894Z,58.38
2017-02-23T13:04:10.659Z,57.21
2017-02-23T13:05:37.918Z,56.85
2017-02-23T13:07:05.183Z,56.65
2017-02-23T13:08:17.904Z,57.46
2017-02-23T13:09:31.186Z,56.2
2017-02-23T13:10:44.486Z,54.95
2017-02-23T13:11:57.761Z,54.39
2017-02-23T13:13:10.470Z,54.17
2017-02-23T13:15:51.292Z,55.41
2017-02-23T13:17:04.588Z,55.12
2017-02-23T13:18:17.309Z,55.41
2017-02-23T13:19:44.564Z,54.14
2017-02-23T13:20:57.848Z,54.36
2017-02-23T13:22:10.567Z,54.63
2017-02-23T13:23:23.868Z,54.63
2017-02-23T13:24:37.159Z,53.85
2017-02-23T13:25:50.463Z,53.46
2017-02-23T13:27:03.759Z,53.85
2017-02-23T13:28:17.028Z,52.8
2017-02-23T13:29:30.329Z,53.32
2017-02-23T13:30:43.610Z,53.52
2017-02-23T13:31:56.325Z,52.93
2017-02-23T13:33:09.615Z,51
2017-02-23T13:34:22.339Z,51.39
2017-02-23T13:35:35.631Z,50.42
2017-02-23T13:36:48.944Z,51.29
2017-02-23T13:38:02.260Z,50.81
2017-02-23T13:39:15.563Z,51.29
2017-02-23T13:40:28.856Z,51.39
2017-02-23T13:41:41.619Z,50.34
2017-02-23T13:42:54.944Z,50.15
2017-02-23T13:44:08.262Z,50.34
2017-02-23T13:45:21.544Z,50.83
2017-02-23T13:46:48.547Z,50.22
2017-02-23T13:48:01.860Z,49.46
2017-02-23T13:49:28.657Z,47.99
2017-02-23T13:50:42.000Z,48.77
2017-02-23T13:51:54.769Z,49.65
2017-02-23T13:53:08.125Z,50.05
2017-02-23T13:54:20.867Z,49.75
2017-02-23T13:55:34.145Z,49.36
2017-02-23T13:56:47.435Z,49.29
2017-02-23T13:58:01.002Z,48.9
2017-02-23T13:59:14.291Z,48.6
2017-02-23T14:00:41.597Z,48.7
2017-02-23T14:01:55.181Z,48.02
2017-02-23T14:03:08.476Z,48.02
2017-02-23T14:04:21.779Z,48.11
2017-02-23T14:05:34.495Z,47.82
2017-02-23T14:06:47.817Z,48.11
2017-02-23T14:08:01.116Z,48.7
2017-02-23T14:09:14.040Z,47.33
2017-02-23T14:10:27.321Z,47.55
2017-02-23T14:11:40.598Z,47.75
2017-02-23T14:12:53.856Z,48.82
2017-02-23T14:14:07.005Z,49.29
2017-02-23T14:15:20.203Z,49.07
2017-02-23T14:16:33.361Z,48.58
2017-02-23T14:17:46.503Z,48.77
2017-02-23T14:18:59.664Z,47.63
2017-02-23T14:20:11.718Z,47.63
2017-02-23T14:21:24.871Z,47.85
2017-02-23T14:22:38.052Z,47.75
2017-02-23T14:24:05.202Z,46.69
2017-02-23T14:25:18.357Z,46.5
2017-02-23T14:26:31.518Z,46.42
2017-02-23T14:27:44.667Z,47.18
2017-02-23T14:28:57.826Z,46.59
2017-02-23T14:30:10.982Z,46.79
2017-02-23T14:31:38.136Z,47.28
2017-02-23T14:33:05.280Z,47.67
2017-02-23T14:34:18.180Z,47.4
2017-02-23T14:35:45.336Z,46.72
2017-02-23T14:36:58.470Z,46.44
2017-02-23T14:38:11.086Z,46.05
2017-02-23T14:39:24.525Z,45.86
2017-02-23T14:40:37.710Z,46.23
2017-02-23T14:43:17.006Z,46.72
2017-02-23T14:44:30.407Z,46.52
2017-02-23T14:45:45.149Z,46.72
2017-02-23T14:46:58.326Z,46.72
2017-02-23T14:48:11.373Z,47.6
2017-02-23T14:49:24.797Z,47.47
2017-02-23T14:52:06.618Z,47.24
2017-02-23T14:53:18.659Z,47.82
2017-02-23T14:54:31.805Z,47.43
2017-02-23T14:55:44.961Z,46.57
2017-02-23T14:56:58.095Z,47.55
2017-02-23T14:58:11.253Z,46.77
2017-02-23T14:59:24.399Z,47.26
2017-02-23T15:00:37.560Z,47.36
2017-02-23T15:01:50.735Z,47.45
2017-02-23T15:03:03.883Z,47.47
2017-02-23T15:04:16.485Z,45.52
2017-02-23T15:05:57.088Z,46.4
2017-02-23T15:07:10.226Z,46.2
2017-02-23T15:08:23.390Z,46.3
2017-02-23T15:09:36.474Z,47.26
2017-02-23T15:10:49.914Z,48.7
2017-02-23T15:12:02.497Z,48.21
2017-02-23T15:13:15.086Z,48.77
2017-02-23T15:15:55.399Z,50.49
2017-02-23T15:17:08.574Z,50.1
2017-02-23T15:18:21.176Z,50
2017-02-23T15:21:15.478Z,50.1
2017-02-23T15:22:27.518Z,50.2
2017-02-23T15:23:40.663Z,50.02
2017-02-23T15:24:53.814Z,50.32
2017-02-23T15:26:06.957Z,50.59
2017-02-23T15:27:19.246Z,50.59
2017-02-23T15:28:32.407Z,50.61
2017-02-23T15:29:45.567Z,50.71
2017-02-23T15:31:12.732Z,50.22
2017-02-23T15:32:25.070Z,50.32
2017-02-23T15:33:38.227Z,50.12
2017-02-23T15:34:51.386Z,50.39
2017-02-23T15:36:05.394Z,50.71
2017-02-23T15:37:18.805Z,50.51
2017-02-23T15:38:31.421Z,50.32
2017-02-23T15:39:44.570Z,50.32
2017-02-23T15:40:57.164Z,50.51
2017-02-23T15:42:24.327Z,50.29
2017-02-23T15:43:37.477Z,51.27
2017-02-23T15:44:50.628Z,51.27
2017-02-23T15:46:03.225Z,50.68
2017-02-23T15:47:29.826Z,50.42
2017-02-23T15:48:42.988Z,50.39
2017-02-23T15:49:56.145Z,50.81
2017-02-23T15:51:09.317Z,50.22
2017-02-23T15:52:21.924Z,50.12
2017-02-23T15:53:35.098Z,50.2
2017-02-23T15:54:48.411Z,50.49
2017-02-23T15:56:01.568Z,50.39
2017-02-23T15:57:14.157Z,50.61
2017-02-23T15:58:27.295Z,50.02
2017-02-23T15:59:40.476Z,49.61
2017-02-23T16:00:53.615Z,49.8
2017-02-23T16:02:06.765Z,50.46
2017-02-23T16:03:19.351Z,50.26
2017-02-23T16:04:32.191Z,49.78
2017-02-23T16:05:45.338Z,49.32
2017-02-23T16:06:58.497Z,49.29
2017-02-23T16:08:11.105Z,49.61
2017-02-23T16:09:23.720Z,49.12
2017-02-23T16:10:36.868Z,49.02
2017-02-23T16:11:50.033Z,48.55
2017-02-23T16:13:03.173Z,47.38
2017-02-23T16:14:33.300Z,47.38
2017-02-23T16:15:47.463Z,46.6
2017-02-23T16:17:02.324Z,46.11